Time;durP1;ratioP1;P1;durP2;ratioP2;P2;SDS_P1;SDS_P2;PMS_P1;PMS_P2;Temp;Humidity;BMP_temperature;BMP_pressure;BME280_temperature;BME280_humidity;BME280_pressure;Samples;Min_cycle;Max_cycle;Signal;HPM_P1;HPM_P2
2022/09/01 00:02:07;;;;;;;0.60;0.60;;;;;;;;;;5056455;28;20231;-72
2022/09/01 00:04:37;;;;;;;1.27;0.70;;;;;;;;;;5048617;28;20227;-72
2022/09/01 00:07:06;;;;;;;0.60;0.60;;;;;;;;;;5037371;28;20222;-72
2022/09/01 00:09:32;;;;;;;0.60;0.60;;;;;;;;;;5039416;28;20309;-72
2022/09/01 00:12:00;;;;;;;0.93;0.60;;;;;;;;;;5058176;28;20227;-72
2022/09/01 00:14:27;;;;;;;1.08;0.80;;;;;;;;;;5034483;28;20238;-71
2022/09/01 00:16:56;;;;;;;0.85;0.60;;;;;;;;;;5037369;28;20231;-71
2022/09/01 00:19:24;;;;;;;1.48;0.68;;;;;;;;;;5040689;28;20223;-71
2022/09/01 00:21:49;;;;;;;0.77;0.70;;;;;;;;;;5041464;28;20629;-72
2022/09/01 00:24:17;;;;;;;0.73;0.73;;;;;;;;;;5026457;28;20688;-71
2022/09/01 00:26:48;;;;;;;0.50;0.50;;;;;;;;;;5037008;28;20311;-72
2022/09/01 00:29:14;;;;;;;0.63;0.60;;;;;;;;;;5038788;28;20228;-71
2022/09/01 00:31:44;;;;;;;1.00;0.85;;;;;;;;;;5039715;28;20774;-72
2022/09/01 00:34:09;;;;;;;0.90;0.70;;;;;;;;;;5048032;28;20237;-72
2022/09/01 00:36:40;;;;;;;0.75;0.70;;;;;;;;;;5042015;28;20287;-72
2022/09/01 00:39:06;;;;;;;0.93;0.80;;;;;;;;;;5063592;28;20258;-71
2022/09/01 00:41:37;;;;;;;0.70;0.70;;;;;;;;;;5032127;28;20234;-71
2022/09/01 00:44:07;;;;;;;0.60;0.60;;;;;;;;;;5033534;28;20275;-71
2022/09/01 00:46:35;;;;;;;2.08;0.70;;;;;;;;;;5044562;28;20266;-71
2022/09/01 00:49:03;;;;;;;1.58;0.68;;;;;;;;;;5023473;28;20713;-71
2022/09/01 00:51:29;;;;;;;2.83;0.52;;;;;;;;;;5040743;28;20363;-71
2022/09/01 00:53:54;;;;;;;1.63;0.65;;;;;;;;;;5032081;28;20800;-71
2022/09/01 00:56:23;;;;;;;1.08;0.80;;;;;;;;;;5042564;28;20223;-71
2022/09/01 00:58:51;;;;;;;0.83;0.77;;;;;;;;;;5044768;28;20784;-71
2022/09/01 01:01:17;;;;;;;0.73;0.73;;;;;;;;;;5018754;28;20311;-71
2022/09/01 01:03:43;;;;;;;2.08;0.75;;;;;;;;;;5031652;28;20244;-71
2022/09/01 01:06:12;;;;;;;0.77;0.77;;;;;;;;;;5042196;28;20238;-72
2022/09/01 01:08:40;;;;;;;0.60;0.60;;;;;;;;;;5040144;28;20361;-72
2022/09/01 01:11:17;;;;;;;0.65;0.60;;;;;;;;;;5040486;28;20257;-71
2022/09/01 01:13:53;;;;;;;0.60;0.60;;;;;;;;;;5041137;28;20241;-72
2022/09/01 01:16:19;;;;;;;4.05;0.70;;;;;;;;;;5031844;28;20254;-72
2022/09/01 01:18:44;;;;;;;8.80;0.80;;;;;;;;;;5041469;28;20283;-72
2022/09/01 01:24:30;;;;;;;1.73;0.75;;;;;;;;;;5043328;28;20684;-72
2022/09/01 01:26:58;;;;;;;0.88;0.60;;;;;;;;;;5030238;28;20216;-72
2022/09/01 01:29:33;;;;;;;0.67;0.67;;;;;;;;;;5024573;28;20218;-72
2022/09/01 01:32:02;;;;;;;0.73;0.73;;;;;;;;;;5036848;28;20222;-72
2022/09/01 01:34:27;;;;;;;0.70;0.70;;;;;;;;;;5050612;28;20305;-72
2022/09/01 01:36:58;;;;;;;0.60;0.60;;;;;;;;;;5055054;28;20219;-72
2022/09/01 01:39:24;;;;;;;0.80;0.80;;;;;;;;;;5043568;28;20225;-71
2022/09/01 01:41:53;;;;;;;0.97;0.70;;;;;;;;;;5054449;28;20306;-72
2022/09/01 01:44:23;;;;;;;1.47;0.73;;;;;;;;;;5055505;28;20215;-73
2022/09/01 01:46:51;;;;;;;2.43;0.70;;;;;;;;;;5046798;28;20223;-72
2022/09/01 01:49:23;;;;;;;0.77;0.70;;;;;;;;;;5036387;28;20742;-72
2022/09/01 01:51:55;;;;;;;1.30;0.70;;;;;;;;;;5029546;28;20306;-72
2022/09/01 01:54:28;;;;;;;1.63;0.80;;;;;;;;;;5045513;28;20219;-72
2022/09/01 01:56:56;;;;;;;0.80;0.80;;;;;;;;;;5030824;28;20218;-71
2022/09/01 01:59:25;;;;;;;1.00;0.90;;;;;;;;;;5039868;28;20224;-72
2022/09/01 02:01:55;;;;;;;0.80;0.60;;;;;;;;;;5010104;28;20718;-72
2022/09/01 02:04:21;;;;;;;1.43;0.80;;;;;;;;;;5008684;28;20228;-72
2022/09/01 02:06:50;;;;;;;0.90;0.60;;;;;;;;;;5021794;28;20298;-72
2022/09/01 02:09:22;;;;;;;0.67;0.67;;;;;;;;;;5043045;28;20223;-72
2022/09/01 02:11:48;;;;;;;2.20;0.50;;;;;;;;;;5039265;28;20692;-72
2022/09/01 02:14:19;;;;;;;2.20;0.80;;;;;;;;;;5049758;28;20250;-72
2022/09/01 02:16:47;;;;;;;0.97;0.90;;;;;;;;;;5037859;28;20229;-72
2022/09/01 02:19:18;;;;;;;1.33;0.63;;;;;;;;;;5045274;28;20219;-72
2022/09/01 02:21:47;;;;;;;0.60;0.60;;;;;;;;;;5053505;28;20230;-73
2022/09/01 02:24:15;;;;;;;0.70;0.70;;;;;;;;;;5039741;28;20235;-72
2022/09/01 02:26:46;;;;;;;1.90;0.80;;;;;;;;;;5043155;28;20593;-72
2022/09/01 02:29:17;;;;;;;1.07;0.67;;;;;;;;;;5046206;28;20228;-71
2022/09/01 02:31:50;;;;;;;0.73;0.73;;;;;;;;;;5027519;28;20235;-72
2022/09/01 02:34:16;;;;;;;1.50;0.60;;;;;;;;;;5029162;28;20391;-72
2022/09/01 02:36:47;;;;;;;0.50;0.50;;;;;;;;;;5038910;28;20720;-72
2022/09/01 02:39:25;;;;;;;0.80;0.80;;;;;;;;;;5054786;28;20372;-71
2022/09/01 02:41:51;;;;;;;0.60;0.60;;;;;;;;;;5049663;28;20223;-72
2022/09/01 02:44:22;;;;;;;0.57;0.57;;;;;;;;;;5006793;28;20715;-71
2022/09/01 02:46:50;;;;;;;1.20;0.80;;;;;;;;;;5043862;28;20250;-72
2022/09/01 02:49:24;;;;;;;0.70;0.70;;;;;;;;;;5057504;28;20220;-72
2022/09/01 02:51:56;;;;;;;4.00;0.70;;;;;;;;;;5032882;28;20231;-72
2022/09/01 02:54:26;;;;;;;0.80;0.60;;;;;;;;;;5054483;28;20219;-72
2022/09/01 02:56:54;;;;;;;0.90;0.80;;;;;;;;;;5038296;28;20216;-72
2022/09/01 02:59:26;;;;;;;2.80;1.00;;;;;;;;;;5040013;28;20208;-72
2022/09/01 03:01:56;;;;;;;3.63;0.80;;;;;;;;;;5042749;28;20269;-72
2022/09/01 03:04:33;;;;;;;1.43;0.73;;;;;;;;;;5040849;28;20215;-72
2022/09/01 03:07:03;;;;;;;2.23;0.90;;;;;;;;;;5042968;28;20824;-72
2022/09/01 03:09:31;;;;;;;0.80;0.80;;;;;;;;;;5035744;28;20227;-71
2022/09/01 03:11:59;;;;;;;1.30;1.00;;;;;;;;;;5020610;28;20247;-72
2022/09/01 03:14:28;;;;;;;0.80;0.80;;;;;;;;;;5038366;28;20215;-72
2022/09/01 03:16:54;;;;;;;1.33;0.87;;;;;;;;;;5041381;28;20227;-72
2022/09/01 03:19:23;;;;;;;0.80;0.80;;;;;;;;;;5039269;28;20878;-72
2022/09/01 03:21:48;;;;;;;0.80;0.80;;;;;;;;;;5025955;28;20222;-72
2022/09/01 03:24:18;;;;;;;0.87;0.87;;;;;;;;;;5041967;28;20241;-72
2022/09/01 03:26:48;;;;;;;1.17;0.87;;;;;;;;;;5046795;28;20227;-72
2022/09/01 03:29:14;;;;;;;0.93;0.87;;;;;;;;;;5040591;28;20235;-73
2022/09/01 03:31:41;;;;;;;1.00;0.90;;;;;;;;;;5047969;28;20288;-71
2022/09/01 03:34:10;;;;;;;0.90;0.90;;;;;;;;;;5048896;28;20330;-72
2022/09/01 03:36:48;;;;;;;0.83;0.83;;;;;;;;;;5041423;28;20218;-72
2022/09/01 03:39:17;;;;;;;1.77;1.00;;;;;;;;;;5034560;28;20230;-73
2022/09/01 03:41:47;;;;;;;1.37;0.93;;;;;;;;;;5032951;28;20243;-73
2022/09/01 03:44:15;;;;;;;2.13;0.90;;;;;;;;;;5044248;28;20707;-73
2022/09/01 03:46:41;;;;;;;0.77;0.77;;;;;;;;;;5045581;28;20218;-72
2022/09/01 03:49:11;;;;;;;1.37;1.00;;;;;;;;;;5038112;28;20247;-71
2022/09/01 03:51:37;;;;;;;0.73;0.73;;;;;;;;;;5060203;28;20234;-71
2022/09/01 03:54:09;;;;;;;0.83;0.70;;;;;;;;;;5042651;28;20829;-72
2022/09/01 03:56:40;;;;;;;1.07;0.77;;;;;;;;;;5025775;28;20700;-71
2022/09/01 03:59:07;;;;;;;1.80;1.00;;;;;;;;;;5044596;28;20227;-71
2022/09/01 04:01:42;;;;;;;3.80;0.97;;;;;;;;;;5043623;28;20227;-72
2022/09/01 04:04:14;;;;;;;1.40;0.90;;;;;;;;;;5051751;28;20217;-71
2022/09/01 04:06:41;;;;;;;1.33;0.93;;;;;;;;;;5044409;28;20766;-72
2022/09/01 04:09:07;;;;;;;1.17;0.90;;;;;;;;;;5048277;28;20716;-72
2022/09/01 04:11:35;;;;;;;0.80;0.80;;;;;;;;;;5039593;28;20227;-70
2022/09/01 04:14:00;;;;;;;1.93;0.93;;;;;;;;;;5043780;28;20890;-71
2022/09/01 04:19:38;;;;;;;1.23;1.13;;;;;;;;;;5045943;28;20234;-72
2022/09/01 04:22:04;;;;;;;3.33;1.10;;;;;;;;;;5047998;28;20222;-72
2022/09/01 04:24:44;;;;;;;1.80;1.07;;;;;;;;;;5029190;28;20222;-72
2022/09/01 04:27:10;;;;;;;2.00;0.93;;;;;;;;;;5026426;28;20230;-72
2022/09/01 04:29:35;;;;;;;1.13;1.03;;;;;;;;;;5014891;28;20227;-73
2022/09/01 04:32:11;;;;;;;1.43;1.23;;;;;;;;;;5044236;28;20264;-72
2022/09/01 04:34:40;;;;;;;0.80;0.80;;;;;;;;;;5034008;28;20221;-71
2022/09/01 04:37:27;;;;;;;1.10;1.10;;;;;;;;;;5010432;28;20932;-72
2022/09/01 04:39:59;;;;;;;1.60;1.40;;;;;;;;;;5046864;28;20321;-72
2022/09/01 04:42:31;;;;;;;1.43;1.10;;;;;;;;;;5060251;28;20276;-72
2022/09/01 04:45:00;;;;;;;1.23;1.13;;;;;;;;;;5021588;28;20246;-73
2022/09/01 04:47:29;;;;;;;2.40;1.40;;;;;;;;;;5023304;28;20228;-71
2022/09/01 04:49:59;;;;;;;1.47;1.10;;;;;;;;;;5027016;28;20238;-72
2022/09/01 04:52:26;;;;;;;0.90;0.90;;;;;;;;;;5032263;28;20208;-71
2022/09/01 04:54:53;;;;;;;1.60;1.50;;;;;;;;;;5042677;28;20234;-71
2022/09/01 04:57:28;;;;;;;1.77;1.33;;;;;;;;;;5026689;28;20242;-71
2022/09/01 04:59:57;;;;;;;1.20;1.10;;;;;;;;;;5050550;28;20311;-71
2022/09/01 05:02:27;;;;;;;1.20;1.10;;;;;;;;;;5056547;28;20217;-72
2022/09/01 05:04:57;;;;;;;1.20;1.10;;;;;;;;;;5027894;28;20219;-72
2022/09/01 05:07:23;;;;;;;1.37;1.10;;;;;;;;;;5061150;28;20276;-72
2022/09/01 05:09:53;;;;;;;1.17;0.97;;;;;;;;;;5049445;28;20223;-69
2022/09/01 05:12:40;;;;;;;1.20;1.10;;;;;;;;;;5046414;28;20230;-69
2022/09/01 05:15:08;;;;;;;1.13;0.90;;;;;;;;;;5025843;28;20768;-70
2022/09/01 05:17:51;;;;;;;1.00;1.00;;;;;;;;;;5029974;28;20215;-70
2022/09/01 05:20:19;;;;;;;0.90;0.90;;;;;;;;;;5012795;28;20303;-70
2022/09/01 05:22:45;;;;;;;1.60;1.20;;;;;;;;;;5037168;28;20227;-71
2022/09/01 05:25:12;;;;;;;2.50;1.10;;;;;;;;;;5039584;28;20229;-72
2022/09/01 05:27:41;;;;;;;1.50;1.30;;;;;;;;;;5027434;28;20226;-70
2022/09/01 05:30:10;;;;;;;1.20;1.00;;;;;;;;;;5024415;28;20230;-71
2022/09/01 05:32:38;;;;;;;1.17;1.08;;;;;;;;;;5031560;28;20233;-70
2022/09/01 05:35:07;;;;;;;1.20;1.03;;;;;;;;;;5042600;28;20318;-71
2022/09/01 05:37:38;;;;;;;1.63;1.20;;;;;;;;;;5027397;28;20282;-70
2022/09/01 05:40:05;;;;;;;3.27;1.67;;;;;;;;;;5030183;28;20221;-71
2022/09/01 05:42:34;;;;;;;1.47;1.17;;;;;;;;;;5011900;28;20219;-71
2022/09/01 05:45:03;;;;;;;1.30;1.20;;;;;;;;;;5060855;28;20222;-72
2022/09/01 05:47:28;;;;;;;1.53;1.30;;;;;;;;;;5058866;28;20276;-72
2022/09/01 05:50:00;;;;;;;1.50;1.23;;;;;;;;;;5035255;28;20743;-72
2022/09/01 05:52:30;;;;;;;2.57;1.10;;;;;;;;;;5060879;28;20233;-72
2022/09/01 05:54:58;;;;;;;1.00;0.90;;;;;;;;;;5019731;28;20353;-71
2022/09/01 05:57:27;;;;;;;1.17;1.00;;;;;;;;;;5024453;28;20219;-72
2022/09/01 05:59:55;;;;;;;1.00;1.00;;;;;;;;;;5037376;28;20223;-72
2022/09/01 06:02:25;;;;;;;1.23;1.02;;;;;;;;;;5040855;28;20223;-72
2022/09/01 06:04:55;;;;;;;2.83;1.23;;;;;;;;;;5057169;23;20320;-72
2022/09/01 06:07:27;;;;;;;1.08;0.90;;;;;;;;;;5037808;28;20262;-69
2022/09/01 06:09:56;;;;;;;2.15;0.75;;;;;;;;;;5013840;28;20251;-70
2022/09/01 06:12:25;;;;;;;1.83;0.88;;;;;;;;;;5007616;28;20223;-71
2022/09/01 06:14:52;;;;;;;0.98;0.90;;;;;;;;;;5024669;28;20706;-70
2022/09/01 06:17:23;;;;;;;0.80;0.80;;;;;;;;;;5002388;28;20217;-70
2022/09/01 06:19:54;;;;;;;0.98;0.80;;;;;;;;;;5007405;28;20232;-70
2022/09/01 06:22:22;;;;;;;2.15;0.80;;;;;;;;;;5027890;28;20220;-70
2022/09/01 06:24:53;;;;;;;2.45;1.00;;;;;;;;;;5023873;28;20290;-71
2022/09/01 06:27:20;;;;;;;0.73;0.70;;;;;;;;;;5007462;28;20227;-72
2022/09/01 06:29:56;;;;;;;1.45;1.00;;;;;;;;;;4991609;28;20280;-71
2022/09/01 06:32:24;;;;;;;0.95;0.80;;;;;;;;;;5031292;28;20610;-72
2022/09/01 06:34:50;;;;;;;2.85;0.60;;;;;;;;;;4994774;28;20256;-71
2022/09/01 06:37:16;;;;;;;2.20;0.70;;;;;;;;;;5022659;28;20226;-72
2022/09/01 06:39:44;;;;;;;1.67;0.80;;;;;;;;;;4991721;28;20583;-72
2022/09/01 06:42:14;;;;;;;0.73;0.73;;;;;;;;;;4974458;28;20224;-72
2022/09/01 06:44:49;;;;;;;0.68;0.68;;;;;;;;;;5020120;28;20239;-73
2022/09/01 06:47:18;;;;;;;1.45;0.57;;;;;;;;;;5015245;28;20721;-72
2022/09/01 06:49:43;;;;;;;0.60;0.60;;;;;;;;;;5024995;28;20285;-72
2022/09/01 06:52:15;;;;;;;1.23;0.60;;;;;;;;;;5012552;28;20228;-73
2022/09/01 06:54:42;;;;;;;0.75;0.75;;;;;;;;;;5033165;28;20223;-72
2022/09/01 06:57:08;;;;;;;4.38;0.90;;;;;;;;;;5008162;28;20343;-72
2022/09/01 06:59:34;;;;;;;0.98;0.50;;;;;;;;;;5008327;28;20287;-72
2022/09/01 07:02:02;;;;;;;0.60;0.60;;;;;;;;;;5015742;28;20227;-72
2022/09/01 07:04:44;;;;;;;1.10;0.73;;;;;;;;;;5025133;28;20247;-73
2022/09/01 07:07:12;;;;;;;0.55;0.55;;;;;;;;;;5024675;28;20212;-71
2022/09/01 07:09:56;;;;;;;0.60;0.60;;;;;;;;;;4999091;28;20301;-71
2022/09/01 07:12:34;;;;;;;1.67;0.75;;;;;;;;;;5014337;28;20297;-71
2022/09/01 07:15:00;;;;;;;1.35;0.57;;;;;;;;;;5006446;28;20255;-72
2022/09/01 07:17:29;;;;;;;0.90;0.60;;;;;;;;;;5008556;28;20214;-72
2022/09/01 07:19:57;;;;;;;0.82;0.70;;;;;;;;;;5025358;28;20224;-73
2022/09/01 07:22:23;;;;;;;0.85;0.55;;;;;;;;;;4991650;28;20705;-71
2022/09/01 07:24:56;;;;;;;0.57;0.57;;;;;;;;;;5016463;28;20219;-73
2022/09/01 07:27:27;;;;;;;2.53;0.55;;;;;;;;;;5009991;28;20251;-73
2022/09/01 07:29:55;;;;;;;0.60;0.50;;;;;;;;;;5008192;28;20339;-72
2022/09/01 07:32:22;;;;;;;0.90;0.55;;;;;;;;;;5020654;28;20220;-73
2022/09/01 07:34:47;;;;;;;0.50;0.50;;;;;;;;;;5006431;28;20318;-73
2022/09/01 07:37:21;;;;;;;1.40;0.60;;;;;;;;;;5014755;28;20220;-73
2022/09/01 07:39:49;;;;;;;1.05;0.77;;;;;;;;;;5008327;28;20716;-71
2022/09/01 07:42:41;;;;;;;0.93;0.70;;;;;;;;;;5006815;28;20257;-73
2022/09/01 07:45:25;;;;;;;1.15;0.60;;;;;;;;;;5024953;28;20659;-71
2022/09/01 07:48:05;;;;;;;0.40;0.40;;;;;;;;;;5022620;28;20232;-72
2022/09/01 07:50:35;;;;;;;0.73;0.40;;;;;;;;;;5029074;28;20254;-71
2022/09/01 07:53:03;;;;;;;0.50;0.40;;;;;;;;;;4992701;28;20638;-71
2022/09/01 07:55:30;;;;;;;0.43;0.40;;;;;;;;;;5005339;28;20228;-72
2022/09/01 07:58:01;;;;;;;0.50;0.50;;;;;;;;;;4994369;28;20258;-72
2022/09/01 08:00:29;;;;;;;0.98;0.50;;;;;;;;;;5007223;28;20287;-72
2022/09/01 08:03:00;;;;;;;0.73;0.50;;;;;;;;;;5007479;28;20610;-71
2022/09/01 08:05:28;;;;;;;0.50;0.50;;;;;;;;;;5004559;28;20228;-72
2022/09/01 08:07:54;;;;;;;0.50;0.50;;;;;;;;;;5039835;28;20601;-72
2022/09/01 08:10:26;;;;;;;1.33;0.40;;;;;;;;;;5009353;28;20247;-72
2022/09/01 08:12:55;;;;;;;1.13;0.50;;;;;;;;;;5023740;28;20224;-72
2022/09/01 08:15:21;;;;;;;0.50;0.50;;;;;;;;;;5029318;28;20232;-72
2022/09/01 08:17:48;;;;;;;1.85;0.50;;;;;;;;;;5011138;28;20254;-72
2022/09/01 08:20:17;;;;;;;2.72;0.50;;;;;;;;;;4999692;28;20212;-72
2022/09/01 08:22:59;;;;;;;1.00;0.60;;;;;;;;;;5013458;28;20228;-71
2022/09/01 08:25:29;;;;;;;1.17;0.63;;;;;;;;;;4979176;28;20613;-71
2022/09/01 08:27:59;;;;;;;1.50;0.60;;;;;;;;;;4994206;28;20636;-72
2022/09/01 08:30:31;;;;;;;0.40;0.40;;;;;;;;;;4994191;28;20223;-71
2022/09/01 08:32:57;;;;;;;1.40;0.52;;;;;;;;;;5005635;28;20224;-72
2022/09/01 08:35:28;;;;;;;1.33;0.50;;;;;;;;;;5026996;28;20223;-72
2022/09/01 08:37:55;;;;;;;1.85;0.63;;;;;;;;;;5011428;28;20576;-73
2022/09/01 08:40:22;;;;;;;4.05;0.77;;;;;;;;;;5010452;28;20224;-71
2022/09/01 08:43:03;;;;;;;0.95;0.50;;;;;;;;;;4994480;28;20262;-72
2022/09/01 08:45:37;;;;;;;0.60;0.55;;;;;;;;;;5026640;28;21024;-72
2022/09/01 08:48:46;;;;;;;2.13;0.60;;;;;;;;;;4977780;28;20258;-72
2022/09/01 08:51:27;;;;;;;1.13;0.57;;;;;;;;;;5015648;28;20222;-72
2022/09/01 08:54:19;;;;;;;1.10;0.80;;;;;;;;;;4996890;28;20224;-72
2022/09/01 08:56:53;;;;;;;0.57;0.50;;;;;;;;;;5043413;28;20372;-72
2022/09/01 08:59:27;;;;;;;0.65;0.50;;;;;;;;;;5011769;28;20227;-72
2022/09/01 09:02:30;;;;;;;0.90;0.40;;;;;;;;;;5015106;28;20646;-72
2022/09/01 09:05:10;;;;;;;0.45;0.45;;;;;;;;;;5026325;28;20303;-71
2022/09/01 09:08:08;;;;;;;0.45;0.45;;;;;;;;;;5042237;28;20243;-70
2022/09/01 09:10:55;;;;;;;1.52;0.50;;;;;;;;;;5014245;28;20330;-72
2022/09/01 09:13:31;;;;;;;0.32;0.32;;;;;;;;;;5024922;28;20223;-72
2022/09/01 09:16:34;;;;;;;2.22;0.70;;;;;;;;;;5026999;28;20315;-71
2022/09/01 09:19:04;;;;;;;0.98;0.45;;;;;;;;;;5009589;28;20226;-71
2022/09/01 09:21:32;;;;;;;0.77;0.50;;;;;;;;;;4992059;28;20877;-70
2022/09/01 09:24:19;;;;;;;0.57;0.55;;;;;;;;;;5025733;28;20224;-72
2022/09/01 09:26:51;;;;;;;0.40;0.40;;;;;;;;;;5009649;28;20862;-70
2022/09/01 09:29:17;;;;;;;0.43;0.40;;;;;;;;;;5025598;28;20644;-70
2022/09/01 09:31:47;;;;;;;0.50;0.50;;;;;;;;;;4996959;28;20266;-71
2022/09/01 09:34:31;;;;;;;0.60;0.50;;;;;;;;;;5004126;28;20243;-71
2022/09/01 09:37:37;;;;;;;1.17;0.50;;;;;;;;;;5025828;28;20232;-71
2022/09/01 09:40:10;;;;;;;0.50;0.40;;;;;;;;;;4945455;28;20237;-71
2022/09/01 09:42:38;;;;;;;0.55;0.55;;;;;;;;;;4999379;28;20288;-71
2022/09/01 09:45:20;;;;;;;1.00;0.65;;;;;;;;;;5009290;28;20231;-72
2022/09/01 09:47:46;;;;;;;0.45;0.45;;;;;;;;;;5008891;28;20235;-73
2022/09/01 09:50:31;;;;;;;1.13;0.52;;;;;;;;;;5015702;28;20231;-71
2022/09/01 09:53:19;;;;;;;0.95;0.77;;;;;;;;;;4991001;28;20266;-72
2022/09/01 09:56:09;;;;;;;7.03;6.10;;;;;;;;;;4993302;28;20224;-71
2022/09/01 09:58:39;;;;;;;4.35;3.58;;;;;;;;;;5026344;28;20224;-72
2022/09/01 10:01:07;;;;;;;5.07;4.57;;;;;;;;;;5008257;28;20259;-71
2022/09/01 10:03:49;;;;;;;6.18;3.45;;;;;;;;;;5040087;28;20220;-72
2022/09/01 10:06:30;;;;;;;2.90;2.53;;;;;;;;;;5023387;28;20324;-70
2022/09/01 10:09:01;;;;;;;3.40;2.92;;;;;;;;;;5026213;28;20366;-70
2022/09/01 10:11:48;;;;;;;4.00;2.60;;;;;;;;;;5002428;28;20593;-71
2022/09/01 10:14:24;;;;;;;2.88;2.03;;;;;;;;;;4984583;28;20208;-72
2022/09/01 10:16:53;;;;;;;3.35;2.50;;;;;;;;;;5022654;28;20219;-71
2022/09/01 10:19:19;;;;;;;2.88;2.38;;;;;;;;;;5005164;28;20214;-71
2022/09/01 10:21:45;;;;;;;2.20;2.00;;;;;;;;;;5006997;28;20219;-71
2022/09/01 10:24:25;;;;;;;2.22;2.03;;;;;;;;;;5014579;28;20222;-70
2022/09/01 10:27:00;;;;;;;1.90;1.80;;;;;;;;;;5040677;28;20228;-70
2022/09/01 10:29:38;;;;;;;2.55;1.80;;;;;;;;;;4992644;28;20724;-71
2022/09/01 10:32:08;;;;;;;0.95;0.90;;;;;;;;;;5023321;28;20224;-71
2022/09/01 10:34:36;;;;;;;1.98;1.00;;;;;;;;;;5007766;28;20239;-71
2022/09/01 10:37:02;;;;;;;6.97;1.65;;;;;;;;;;5008722;28;20221;-73
2022/09/01 10:39:27;;;;;;;1.10;0.80;;;;;;;;;;4994672;28;20235;-72
2022/09/01 10:42:06;;;;;;;1.83;0.70;;;;;;;;;;4991680;28;20638;-72
2022/09/01 10:44:33;;;;;;;0.68;0.65;;;;;;;;;;5008830;28;20723;-70
2022/09/01 10:47:20;;;;;;;1.40;0.77;;;;;;;;;;5024038;28;20874;-72
2022/09/01 10:49:50;;;;;;;1.55;0.60;;;;;;;;;;5009356;28;20220;-74
2022/09/01 10:52:40;;;;;;;0.95;0.68;;;;;;;;;;5022676;28;20408;-71
2022/09/01 10:55:18;;;;;;;0.60;0.60;;;;;;;;;;5040037;28;20798;-72
2022/09/01 10:58:19;;;;;;;0.40;0.40;;;;;;;;;;5006041;28;20902;-72
2022/09/01 11:00:49;;;;;;;0.40;0.40;;;;;;;;;;5010000;28;20603;-72
2022/09/01 11:03:17;;;;;;;0.40;0.40;;;;;;;;;;4996327;28;20997;-72
2022/09/01 11:05:52;;;;;;;0.82;0.57;;;;;;;;;;5026222;28;20227;-72
2022/09/01 11:08:39;;;;;;;0.80;0.63;;;;;;;;;;5024156;28;20232;-71
2022/09/01 11:11:31;;;;;;;1.02;0.70;;;;;;;;;;5000891;28;20709;-72
2022/09/01 11:13:59;;;;;;;1.20;1.00;;;;;;;;;;4985695;28;20248;-71
2022/09/01 11:16:37;;;;;;;1.42;0.90;;;;;;;;;;5006758;28;20728;-70
2022/09/01 11:19:16;;;;;;;0.80;0.80;;;;;;;;;;5003908;28;20219;-72
2022/09/01 11:21:42;;;;;;;2.72;1.17;;;;;;;;;;5005995;28;20678;-72
2022/09/01 11:24:37;;;;;;;1.67;1.20;;;;;;;;;;4991778;28;20216;-71
2022/09/01 11:27:26;;;;;;;0.68;0.68;;;;;;;;;;5028839;28;20225;-70
2022/09/01 11:29:57;;;;;;;1.38;0.90;;;;;;;;;;4984319;28;20236;-71
2022/09/01 11:32:30;;;;;;;3.90;0.80;;;;;;;;;;5004449;28;20227;-72
2022/09/01 11:34:58;;;;;;;1.10;0.40;;;;;;;;;;5021739;28;20315;-71
2022/09/01 11:37:23;;;;;;;1.30;0.60;;;;;;;;;;4983205;28;20216;-71
2022/09/01 11:39:54;;;;;;;1.73;0.63;;;;;;;;;;5007457;28;20978;-73
2022/09/01 11:42:38;;;;;;;1.08;0.60;;;;;;;;;;5003977;28;20227;-72
2022/09/01 11:45:14;;;;;;;0.60;0.52;;;;;;;;;;5007071;28;20224;-71
2022/09/01 11:47:44;;;;;;;1.58;0.40;;;;;;;;;;5024350;28;20228;-71
2022/09/01 11:50:15;;;;;;;2.20;0.50;;;;;;;;;;5021564;28;20254;-72
2022/09/01 11:52:41;;;;;;;1.33;0.57;;;;;;;;;;5032271;28;20737;-71
2022/09/01 11:55:07;;;;;;;0.88;0.50;;;;;;;;;;5010237;28;20243;-71
2022/09/01 11:57:34;;;;;;;0.90;0.43;;;;;;;;;;4995159;28;20281;-71
2022/09/01 12:00:05;;;;;;;1.95;0.75;;;;;;;;;;5008819;28;20216;-71
2022/09/01 12:02:44;;;;;;;0.88;0.60;;;;;;;;;;5026212;28;20215;-72
2022/09/01 12:05:42;;;;;;;0.40;0.40;;;;;;;;;;5010260;28;20318;-72
2022/09/01 12:08:17;;;;;;;0.80;0.45;;;;;;;;;;4994412;28;20228;-72
2022/09/01 12:10:43;;;;;;;0.68;0.40;;;;;;;;;;5028299;28;20220;-72
2022/09/01 12:13:10;;;;;;;0.50;0.50;;;;;;;;;;5015979;28;20208;-71
2022/09/01 12:15:40;;;;;;;0.63;0.50;;;;;;;;;;5013784;28;20235;-71
2022/09/01 12:18:18;;;;;;;0.70;0.50;;;;;;;;;;5011059;28;20243;-70
2022/09/01 12:20:44;;;;;;;0.50;0.43;;;;;;;;;;5011088;28;20689;-71
2022/09/01 12:23:16;;;;;;;0.75;0.57;;;;;;;;;;4990297;28;20262;-71
2022/09/01 12:25:43;;;;;;;0.40;0.40;;;;;;;;;;4994654;28;20292;-73
2022/09/01 12:28:10;;;;;;;0.40;0.40;;;;;;;;;;5025118;28;20235;-72
2022/09/01 12:30:38;;;;;;;3.72;0.93;;;;;;;;;;5027384;28;20307;-73
2022/09/01 12:33:05;;;;;;;1.75;0.63;;;;;;;;;;5010085;28;20698;-71
2022/09/01 12:35:31;;;;;;;2.20;0.60;;;;;;;;;;5026944;28;20318;-72
2022/09/01 12:38:19;;;;;;;0.60;0.50;;;;;;;;;;5009864;28;20218;-71
2022/09/01 12:40:57;;;;;;;0.77;0.43;;;;;;;;;;4981436;28;20223;-71
2022/09/01 12:43:39;;;;;;;0.57;0.50;;;;;;;;;;5024283;28;20234;-71
2022/09/01 12:46:05;;;;;;;0.40;0.40;;;;;;;;;;4986680;28;20236;-72
2022/09/01 12:48:38;;;;;;;0.65;0.50;;;;;;;;;;5018302;28;20243;-72
2022/09/01 12:51:14;;;;;;;0.47;0.43;;;;;;;;;;5011448;28;20243;-72
2022/09/01 12:53:44;;;;;;;0.80;0.68;;;;;;;;;;5016620;28;20224;-72
2022/09/01 12:56:19;;;;;;;0.63;0.63;;;;;;;;;;5026142;28;20228;-71
2022/09/01 12:58:47;;;;;;;2.85;0.63;;;;;;;;;;5027035;28;20276;-71
2022/09/01 13:01:26;;;;;;;0.95;0.50;;;;;;;;;;4982613;28;20231;-70
2022/09/01 13:04:28;;;;;;;0.50;0.50;;;;;;;;;;5010679;28;20228;-72
2022/09/01 13:06:58;;;;;;;1.10;0.50;;;;;;;;;;5025034;28;20690;-71
2022/09/01 13:09:24;;;;;;;1.65;0.77;;;;;;;;;;5010271;28;20314;-70
2022/09/01 13:11:52;;;;;;;0.50;0.50;;;;;;;;;;5014089;28;20736;-71
2022/09/01 13:14:20;;;;;;;0.98;0.60;;;;;;;;;;5015157;28;20216;-73
2022/09/01 13:16:46;;;;;;;0.65;0.57;;;;;;;;;;5028472;28;20228;-71
2022/09/01 13:19:11;;;;;;;0.50;0.50;;;;;;;;;;5042492;28;20713;-71
2022/09/01 13:21:37;;;;;;;0.95;0.70;;;;;;;;;;5025943;28;20232;-72
2022/09/01 13:24:05;;;;;;;2.05;0.70;;;;;;;;;;5042330;28;20236;-73
2022/09/01 13:26:31;;;;;;;1.08;0.80;;;;;;;;;;5007366;28;20237;-71
2022/09/01 13:28:57;;;;;;;0.82;0.60;;;;;;;;;;5009225;28;20313;-71
2022/09/01 13:31:23;;;;;;;0.88;0.70;;;;;;;;;;5008830;28;20270;-72
2022/09/01 13:33:50;;;;;;;0.68;0.68;;;;;;;;;;5019044;28;20609;-72
2022/09/01 13:36:18;;;;;;;0.50;0.50;;;;;;;;;;5017920;28;20224;-71
2022/09/01 13:38:44;;;;;;;0.75;0.50;;;;;;;;;;5033782;28;20224;-71
2022/09/01 13:41:14;;;;;;;0.60;0.60;;;;;;;;;;5022283;28;20882;-71
2022/09/01 13:43:42;;;;;;;1.15;0.60;;;;;;;;;;5026394;28;20230;-72
2022/09/01 13:46:11;;;;;;;0.75;0.55;;;;;;;;;;5025923;28;20258;-72
2022/09/01 13:48:36;;;;;;;2.85;0.60;;;;;;;;;;5025588;28;20228;-71
2022/09/01 13:51:02;;;;;;;0.50;0.50;;;;;;;;;;5025658;28;20267;-72
2022/09/01 13:53:27;;;;;;;0.50;0.50;;;;;;;;;;5024843;28;20225;-71
2022/09/01 13:55:55;;;;;;;1.08;0.47;;;;;;;;;;5029810;28;20228;-73
2022/09/01 13:58:21;;;;;;;0.40;0.40;;;;;;;;;;4992072;28;20216;-71
2022/09/01 14:00:46;;;;;;;1.05;0.40;;;;;;;;;;4999902;28;20579;-71
2022/09/01 14:03:17;;;;;;;2.15;0.50;;;;;;;;;;5010375;28;20224;-72
2022/09/01 14:05:43;;;;;;;0.75;0.60;;;;;;;;;;5009194;28;20226;-73
2022/09/01 14:08:12;;;;;;;0.38;0.38;;;;;;;;;;5013398;28;20607;-71
2022/09/01 14:10:40;;;;;;;0.98;0.60;;;;;;;;;;5009489;28;20223;-72
2022/09/01 14:13:11;;;;;;;0.40;0.40;;;;;;;;;;5006984;28;20595;-72
2022/09/01 14:15:37;;;;;;;0.50;0.50;;;;;;;;;;5025724;28;20252;-72
2022/09/01 14:18:03;;;;;;;2.47;0.43;;;;;;;;;;5021463;28;20251;-73
2022/09/01 14:20:31;;;;;;;0.40;0.40;;;;;;;;;;5013629;28;20224;-70
2022/09/01 14:22:56;;;;;;;0.77;0.70;;;;;;;;;;4998198;28;20252;-71
2022/09/01 14:25:22;;;;;;;0.63;0.50;;;;;;;;;;5014421;28;20315;-71
2022/09/01 14:27:48;;;;;;;0.73;0.70;;;;;;;;;;5014837;28;20228;-71
2022/09/01 14:30:21;;;;;;;1.20;0.57;;;;;;;;;;5042717;28;20276;-70
2022/09/01 14:32:47;;;;;;;1.58;0.50;;;;;;;;;;4989956;28;20220;-70
2022/09/01 14:35:13;;;;;;;0.82;0.57;;;;;;;;;;5009101;28;20258;-70
2022/09/01 14:37:41;;;;;;;2.25;0.70;;;;;;;;;;5025245;28;20282;-70
2022/09/01 14:40:09;;;;;;;0.40;0.40;;;;;;;;;;5024084;28;20266;-71
2022/09/01 14:42:36;;;;;;;0.60;0.50;;;;;;;;;;5024346;28;20277;-71
2022/09/01 14:45:10;;;;;;;0.73;0.50;;;;;;;;;;5041689;28;20232;-71
2022/09/01 14:47:35;;;;;;;2.20;0.70;;;;;;;;;;5008374;28;20222;-70
2022/09/01 14:50:01;;;;;;;0.63;0.50;;;;;;;;;;5028516;28;20601;-72
2022/09/01 14:52:27;;;;;;;2.28;0.57;;;;;;;;;;5007020;28;20223;-72
2022/09/01 14:54:52;;;;;;;0.80;0.60;;;;;;;;;;4976153;28;20242;-71
2022/09/01 14:57:20;;;;;;;3.40;0.80;;;;;;;;;;5024189;28;20307;-71
2022/09/01 14:59:46;;;;;;;0.55;0.40;;;;;;;;;;5024843;28;20227;-72
2022/09/01 15:02:19;;;;;;;1.58;0.80;;;;;;;;;;5024586;28;20278;-70
2022/09/01 15:04:47;;;;;;;1.70;0.40;;;;;;;;;;5023755;28;20721;-71
2022/09/01 15:07:16;;;;;;;0.40;0.40;;;;;;;;;;5023873;28;20234;-71
2022/09/01 15:09:41;;;;;;;0.65;0.50;;;;;;;;;;5024648;28;20243;-71
2022/09/01 15:12:08;;;;;;;0.50;0.50;;;;;;;;;;5019821;28;20223;-72
2022/09/01 15:14:34;;;;;;;1.67;0.40;;;;;;;;;;4992437;28;20273;-70